sensor_id;sensor_type;location;lat;lon;timestamp;P1;durP1;ratioP1;P2;durP2;ratioP2
1603;SDS011;795;49.296;11.348;2023-03-14T00:01:13;2.10;;;1.20;;
1603;SDS011;795;49.296;11.348;2023-03-14T00:03:43;3.60;;;1.20;;
1603;SDS011;795;49.296;11.348;2023-03-14T00:06:10;3.90;;;1.50;;
1603;SDS011;795;49.296;11.348;2023-03-14T00:08:39;0.83;;;0.83;;
1603;SDS011;795;49.296;11.348;2023-03-14T00:11:10;1.17;;;1.07;;
1603;SDS011;795;49.296;11.348;2023-03-14T00:13:42;2.30;;;1.80;;
1603;SDS011;795;49.296;11.348;2023-03-14T00:16:13;15.97;;;8.27;;
1603;SDS011;795;49.296;11.348;2023-03-14T00:18:40;8.67;;;5.80;;
1603;SDS011;795;49.296;11.348;2023-03-14T00:21:07;3.10;;;2.40;;
1603;SDS011;795;49.296;11.348;2023-03-14T00:23:37;1.53;;;1.30;;
1603;SDS011;795;49.296;11.348;2023-03-14T00:26:11;1.87;;;0.93;;
1603;SDS011;795;49.296;11.348;2023-03-14T00:28:43;1.20;;;1.10;;
1603;SDS011;795;49.296;11.348;2023-03-14T00:31:12;1.40;;;1.30;;
1603;SDS011;795;49.296;11.348;2023-03-14T00:33:42;0.90;;;0.90;;
1603;SDS011;795;49.296;11.348;2023-03-14T00:36:12;1.20;;;1.17;;
1603;SDS011;795;49.296;11.348;2023-03-14T00:38:44;1.03;;;1.03;;
1603;SDS011;795;49.296;11.348;2023-03-14T00:41:15;1.17;;;0.90;;
1603;SDS011;795;49.296;11.348;2023-03-14T00:43:48;1.30;;;1.20;;
1603;SDS011;795;49.296;11.348;2023-03-14T00:46:17;1.20;;;1.10;;
1603;SDS011;795;49.296;11.348;2023-03-14T00:48:45;0.97;;;0.97;;
1603;SDS011;795;49.296;11.348;2023-03-14T00:51:13;1.50;;;1.10;;
1603;SDS011;795;49.296;11.348;2023-03-14T00:53:41;1.00;;;0.97;;
1603;SDS011;795;49.296;11.348;2023-03-14T00:56:09;1.37;;;1.27;;
1603;SDS011;795;49.296;11.348;2023-03-14T00:58:39;1.73;;;0.80;;
1603;SDS011;795;49.296;11.348;2023-03-14T01:01:10;0.80;;;0.80;;
1603;SDS011;795;49.296;11.348;2023-03-14T01:03:42;1.00;;;1.00;;
1603;SDS011;795;49.296;11.348;2023-03-14T01:06:11;0.63;;;0.63;;
1603;SDS011;795;49.296;11.348;2023-03-14T01:08:45;0.70;;;0.70;;
1603;SDS011;795;49.296;11.348;2023-03-14T01:11:15;0.70;;;0.70;;
1603;SDS011;795;49.296;11.348;2023-03-14T01:13:52;1.00;;;1.00;;
1603;SDS011;795;49.296;11.348;2023-03-14T01:16:21;0.70;;;0.70;;
1603;SDS011;795;49.296;11.348;2023-03-14T01:18:53;0.80;;;0.80;;
1603;SDS011;795;49.296;11.348;2023-03-14T01:21:24;2.20;;;1.33;;
1603;SDS011;795;49.296;11.348;2023-03-14T01:23:57;0.80;;;0.80;;
1603;SDS011;795;49.296;11.348;2023-03-14T01:26:27;0.90;;;0.90;;
1603;SDS011;795;49.296;11.348;2023-03-14T01:28:58;0.60;;;0.60;;
1603;SDS011;795;49.296;11.348;2023-03-14T01:31:26;0.70;;;0.70;;
1603;SDS011;795;49.296;11.348;2023-03-14T01:33:54;1.57;;;0.70;;
1603;SDS011;795;49.296;11.348;2023-03-14T01:36:21;0.73;;;0.73;;
1603;SDS011;795;49.296;11.348;2023-03-14T01:38:48;0.80;;;0.80;;
1603;SDS011;795;49.296;11.348;2023-03-14T01:41:16;0.80;;;0.70;;
1603;SDS011;795;49.296;11.348;2023-03-14T01:43:53;0.70;;;0.70;;
1603;SDS011;795;49.296;11.348;2023-03-14T01:48:55;0.77;;;0.77;;
1603;SDS011;795;49.296;11.348;2023-03-14T01:51:51;1.60;;;0.60;;
1603;SDS011;795;49.296;11.348;2023-03-14T01:54:37;0.73;;;0.70;;
1603;SDS011;795;49.296;11.348;2023-03-14T01:57:15;0.73;;;0.73;;
1603;SDS011;795;49.296;11.348;2023-03-14T01:59:57;1.00;;;1.00;;
1603;SDS011;795;49.296;11.348;2023-03-14T02:02:37;1.33;;;0.70;;
1603;SDS011;795;49.296;11.348;2023-03-14T02:05:12;0.77;;;0.77;;
1603;SDS011;795;49.296;11.348;2023-03-14T02:07:52;0.93;;;0.93;;
1603;SDS011;795;49.296;11.348;2023-03-14T02:10:25;1.00;;;1.00;;
1603;SDS011;795;49.296;11.348;2023-03-14T02:13:00;1.80;;;1.00;;
1603;SDS011;795;49.296;11.348;2023-03-14T02:15:31;0.90;;;0.90;;
1603;SDS011;795;49.296;11.348;2023-03-14T02:18:00;0.87;;;0.87;;
1603;SDS011;795;49.296;11.348;2023-03-14T02:23:39;0.70;;;0.70;;
1603;SDS011;795;49.296;11.348;2023-03-14T02:30:00;0.90;;;0.90;;
1603;SDS011;795;49.296;11.348;2023-03-14T02:32:36;0.70;;;0.70;;
1603;SDS011;795;49.296;11.348;2023-03-14T02:35:11;1.00;;;0.93;;
1603;SDS011;795;49.296;11.348;2023-03-14T02:41:04;0.60;;;0.60;;
1603;SDS011;795;49.296;11.348;2023-03-14T02:43:31;0.70;;;0.70;;
1603;SDS011;795;49.296;11.348;2023-03-14T02:45:59;1.00;;;0.80;;
1603;SDS011;795;49.296;11.348;2023-03-14T02:48:34;1.10;;;1.00;;
1603;SDS011;795;49.296;11.348;2023-03-14T02:51:11;0.70;;;0.70;;
1603;SDS011;795;49.296;11.348;2023-03-14T02:53:40;0.70;;;0.70;;
1603;SDS011;795;49.296;11.348;2023-03-14T02:56:09;0.80;;;0.80;;
1603;SDS011;795;49.296;11.348;2023-03-14T02:58:37;0.80;;;0.80;;
1603;SDS011;795;49.296;11.348;2023-03-14T03:01:05;0.80;;;0.80;;
1603;SDS011;795;49.296;11.348;2023-03-14T03:03:32;0.67;;;0.67;;
1603;SDS011;795;49.296;11.348;2023-03-14T03:05:59;0.70;;;0.70;;
1603;SDS011;795;49.296;11.348;2023-03-14T03:08:27;0.73;;;0.60;;
1603;SDS011;795;49.296;11.348;2023-03-14T03:10:56;0.80;;;0.80;;
1603;SDS011;795;49.296;11.348;2023-03-14T03:13:24;0.80;;;0.80;;
1603;SDS011;795;49.296;11.348;2023-03-14T03:15:52;0.70;;;0.70;;
1603;SDS011;795;49.296;11.348;2023-03-14T03:18:20;0.80;;;0.80;;
1603;SDS011;795;49.296;11.348;2023-03-14T03:20:47;0.80;;;0.80;;
1603;SDS011;795;49.296;11.348;2023-03-14T03:23:14;0.70;;;0.70;;
1603;SDS011;795;49.296;11.348;2023-03-14T03:25:41;0.80;;;0.80;;
1603;SDS011;795;49.296;11.348;2023-03-14T03:28:13;1.23;;;0.90;;
1603;SDS011;795;49.296;11.348;2023-03-14T03:30:40;0.97;;;0.97;;
1603;SDS011;795;49.296;11.348;2023-03-14T03:33:09;0.90;;;0.90;;
1603;SDS011;795;49.296;11.348;2023-03-14T03:35:43;1.33;;;0.70;;
1603;SDS011;795;49.296;11.348;2023-03-14T03:38:14;0.70;;;0.70;;
1603;SDS011;795;49.296;11.348;2023-03-14T03:40:42;0.70;;;0.63;;
1603;SDS011;795;49.296;11.348;2023-03-14T03:43:10;1.67;;;0.90;;
1603;SDS011;795;49.296;11.348;2023-03-14T03:45:37;0.80;;;0.80;;
1603;SDS011;795;49.296;11.348;2023-03-14T03:48:04;0.80;;;0.80;;
1603;SDS011;795;49.296;11.348;2023-03-14T03:50:31;0.70;;;0.70;;
1603;SDS011;795;49.296;11.348;2023-03-14T03:52:58;0.93;;;0.70;;
1603;SDS011;795;49.296;11.348;2023-03-14T03:55:26;0.80;;;0.80;;
1603;SDS011;795;49.296;11.348;2023-03-14T03:57:54;1.50;;;1.40;;
1603;SDS011;795;49.296;11.348;2023-03-14T04:00:21;1.10;;;1.00;;
1603;SDS011;795;49.296;11.348;2023-03-14T04:02:48;0.70;;;0.70;;
1603;SDS011;795;49.296;11.348;2023-03-14T04:05:15;0.80;;;0.80;;
1603;SDS011;795;49.296;11.348;2023-03-14T04:07:42;1.03;;;1.03;;
1603;SDS011;795;49.296;11.348;2023-03-14T04:10:09;1.27;;;1.17;;
1603;SDS011;795;49.296;11.348;2023-03-14T04:12:36;0.80;;;0.80;;
1603;SDS011;795;49.296;11.348;2023-03-14T04:15:03;0.83;;;0.83;;
1603;SDS011;795;49.296;11.348;2023-03-14T04:17:31;0.90;;;0.90;;
1603;SDS011;795;49.296;11.348;2023-03-14T04:19:58;0.60;;;0.60;;
1603;SDS011;795;49.296;11.348;2023-03-14T04:22:25;0.90;;;0.90;;
1603;SDS011;795;49.296;11.348;2023-03-14T04:24:52;1.20;;;1.20;;
1603;SDS011;795;49.296;11.348;2023-03-14T04:27:18;1.07;;;1.07;;
1603;SDS011;795;49.296;11.348;2023-03-14T04:29:45;1.50;;;1.40;;
1603;SDS011;795;49.296;11.348;2023-03-14T04:32:12;1.17;;;1.17;;
1603;SDS011;795;49.296;11.348;2023-03-14T04:34:39;0.90;;;0.90;;
1603;SDS011;795;49.296;11.348;2023-03-14T04:37:07;0.77;;;0.77;;
1603;SDS011;795;49.296;11.348;2023-03-14T04:39:34;1.33;;;1.00;;
1603;SDS011;795;49.296;11.348;2023-03-14T04:42:01;1.07;;;0.97;;
1603;SDS011;795;49.296;11.348;2023-03-14T04:44:28;2.00;;;1.07;;
1603;SDS011;795;49.296;11.348;2023-03-14T04:46:55;1.53;;;1.10;;
1603;SDS011;795;49.296;11.348;2023-03-14T04:49:22;0.70;;;0.70;;
1603;SDS011;795;49.296;11.348;2023-03-14T04:51:49;0.77;;;0.77;;
1603;SDS011;795;49.296;11.348;2023-03-14T04:54:17;0.77;;;0.77;;
1603;SDS011;795;49.296;11.348;2023-03-14T04:56:44;1.47;;;0.90;;
1603;SDS011;795;49.296;11.348;2023-03-14T04:59:11;1.00;;;1.00;;
1603;SDS011;795;49.296;11.348;2023-03-14T05:01:38;0.80;;;0.80;;
1603;SDS011;795;49.296;11.348;2023-03-14T05:04:05;1.00;;;0.90;;
1603;SDS011;795;49.296;11.348;2023-03-14T05:06:32;0.80;;;0.80;;
1603;SDS011;795;49.296;11.348;2023-03-14T05:08:59;0.90;;;0.90;;
1603;SDS011;795;49.296;11.348;2023-03-14T05:11:26;0.97;;;0.97;;
1603;SDS011;795;49.296;11.348;2023-03-14T05:13:53;1.17;;;1.17;;
1603;SDS011;795;49.296;11.348;2023-03-14T05:16:19;1.10;;;1.03;;
1603;SDS011;795;49.296;11.348;2023-03-14T05:18:46;2.73;;;0.90;;
1603;SDS011;795;49.296;11.348;2023-03-14T05:21:13;1.47;;;1.27;;
1603;SDS011;795;49.296;11.348;2023-03-14T05:23:40;0.97;;;0.97;;
1603;SDS011;795;49.296;11.348;2023-03-14T05:26:07;0.90;;;0.90;;
1603;SDS011;795;49.296;11.348;2023-03-14T05:28:34;2.83;;;1.33;;
1603;SDS011;795;49.296;11.348;2023-03-14T05:31:01;1.80;;;1.17;;
1603;SDS011;795;49.296;11.348;2023-03-14T05:33:34;1.10;;;1.10;;
1603;SDS011;795;49.296;11.348;2023-03-14T05:36:01;1.03;;;1.03;;
1603;SDS011;795;49.296;11.348;2023-03-14T05:38:27;1.73;;;1.00;;
1603;SDS011;795;49.296;11.348;2023-03-14T05:40:54;1.10;;;1.00;;
1603;SDS011;795;49.296;11.348;2023-03-14T05:43:21;1.00;;;1.00;;
1603;SDS011;795;49.296;11.348;2023-03-14T05:45:48;1.00;;;1.00;;
1603;SDS011;795;49.296;11.348;2023-03-14T05:48:15;1.33;;;1.23;;
1603;SDS011;795;49.296;11.348;2023-03-14T05:50:42;1.87;;;1.30;;
1603;SDS011;795;49.296;11.348;2023-03-14T05:53:10;0.97;;;0.97;;
1603;SDS011;795;49.296;11.348;2023-03-14T05:55:37;1.33;;;1.23;;
1603;SDS011;795;49.296;11.348;2023-03-14T05:58:05;1.53;;;1.00;;
1603;SDS011;795;49.296;11.348;2023-03-14T06:00:32;1.60;;;1.50;;
1603;SDS011;795;49.296;11.348;2023-03-14T06:02:59;1.53;;;1.43;;
1603;SDS011;795;49.296;11.348;2023-03-14T06:05:26;1.10;;;1.10;;
1603;SDS011;795;49.296;11.348;2023-03-14T06:07:53;1.23;;;1.23;;
1603;SDS011;795;49.296;11.348;2023-03-14T06:10:20;1.27;;;1.20;;
1603;SDS011;795;49.296;11.348;2023-03-14T06:12:47;1.70;;;1.50;;
1603;SDS011;795;49.296;11.348;2023-03-14T06:15:14;1.47;;;1.37;;
1603;SDS011;795;49.296;11.348;2023-03-14T06:17:41;5.43;;;1.67;;
1603;SDS011;795;49.296;11.348;2023-03-14T06:20:08;1.97;;;1.80;;
1603;SDS011;795;49.296;11.348;2023-03-14T06:22:37;3.40;;;2.00;;
1603;SDS011;795;49.296;11.348;2023-03-14T06:25:06;3.23;;;2.13;;
1603;SDS011;795;49.296;11.348;2023-03-14T06:27:35;1.60;;;1.50;;
1603;SDS011;795;49.296;11.348;2023-03-14T06:30:02;3.57;;;1.80;;
1603;SDS011;795;49.296;11.348;2023-03-14T06:32:30;4.67;;;2.40;;
1603;SDS011;795;49.296;11.348;2023-03-14T06:34:57;3.83;;;1.63;;
1603;SDS011;795;49.296;11.348;2023-03-14T06:37:27;2.00;;;1.90;;
1603;SDS011;795;49.296;11.348;2023-03-14T06:39:55;2.30;;;2.20;;
1603;SDS011;795;49.296;11.348;2023-03-14T06:42:22;2.37;;;2.20;;
1603;SDS011;795;49.296;11.348;2023-03-14T06:44:49;2.87;;;1.87;;
1603;SDS011;795;49.296;11.348;2023-03-14T06:47:16;2.50;;;1.80;;
1603;SDS011;795;49.296;11.348;2023-03-14T06:49:43;1.70;;;1.57;;
1603;SDS011;795;49.296;11.348;2023-03-14T06:52:10;2.97;;;1.97;;
1603;SDS011;795;49.296;11.348;2023-03-14T06:54:37;2.47;;;2.30;;
1603;SDS011;795;49.296;11.348;2023-03-14T06:57:03;1.70;;;1.60;;
1603;SDS011;795;49.296;11.348;2023-03-14T06:59:30;1.80;;;1.70;;
1603;SDS011;795;49.296;11.348;2023-03-14T07:01:57;1.77;;;1.67;;
1603;SDS011;795;49.296;11.348;2023-03-14T07:04:24;1.60;;;1.50;;
1603;SDS011;795;49.296;11.348;2023-03-14T07:06:51;1.53;;;1.43;;
1603;SDS011;795;49.296;11.348;2023-03-14T07:09:18;1.23;;;1.23;;
1603;SDS011;795;49.296;11.348;2023-03-14T07:11:45;1.10;;;1.10;;
1603;SDS011;795;49.296;11.348;2023-03-14T07:14:12;1.40;;;1.30;;
1603;SDS011;795;49.296;11.348;2023-03-14T07:16:39;1.53;;;1.43;;
1603;SDS011;795;49.296;11.348;2023-03-14T07:19:06;1.30;;;1.30;;
1603;SDS011;795;49.296;11.348;2023-03-14T07:21:33;2.83;;;1.40;;
1603;SDS011;795;49.296;11.348;2023-03-14T07:24:00;4.00;;;1.40;;
1603;SDS011;795;49.296;11.348;2023-03-14T07:26:27;1.10;;;1.10;;
1603;SDS011;795;49.296;11.348;2023-03-14T07:28:54;1.00;;;1.00;;
1603;SDS011;795;49.296;11.348;2023-03-14T07:31:21;1.37;;;1.20;;
1603;SDS011;795;49.296;11.348;2023-03-14T07:33:49;1.27;;;1.27;;
1603;SDS011;795;49.296;11.348;2023-03-14T07:36:16;1.40;;;1.30;;
1603;SDS011;795;49.296;11.348;2023-03-14T07:38:43;1.47;;;1.40;;
1603;SDS011;795;49.296;11.348;2023-03-14T07:41:10;1.23;;;1.23;;
1603;SDS011;795;49.296;11.348;2023-03-14T07:43:37;1.37;;;1.27;;
1603;SDS011;795;49.296;11.348;2023-03-14T07:46:04;1.67;;;1.30;;
1603;SDS011;795;49.296;11.348;2023-03-14T07:48:31;1.40;;;1.30;;
1603;SDS011;795;49.296;11.348;2023-03-14T07:50:59;2.10;;;1.27;;
1603;SDS011;795;49.296;11.348;2023-03-14T07:53:26;1.23;;;1.10;;
1603;SDS011;795;49.296;11.348;2023-03-14T07:55:53;1.30;;;1.30;;
1603;SDS011;795;49.296;11.348;2023-03-14T07:58:21;1.00;;;1.00;;
1603;SDS011;795;49.296;11.348;2023-03-14T08:00:48;1.00;;;1.00;;
1603;SDS011;795;49.296;11.348;2023-03-14T08:03:17;1.30;;;1.20;;
1603;SDS011;795;49.296;11.348;2023-03-14T08:05:47;1.00;;;0.90;;
1603;SDS011;795;49.296;11.348;2023-03-14T08:08:17;1.10;;;1.10;;
1603;SDS011;795;49.296;11.348;2023-03-14T08:10:44;1.50;;;1.40;;
1603;SDS011;795;49.296;11.348;2023-03-14T08:13:12;2.13;;;1.33;;
1603;SDS011;795;49.296;11.348;2023-03-14T08:15:40;1.40;;;1.30;;
1603;SDS011;795;49.296;11.348;2023-03-14T08:18:07;1.40;;;1.30;;
1603;SDS011;795;49.296;11.348;2023-03-14T08:20:35;2.10;;;1.20;;
1603;SDS011;795;49.296;11.348;2023-03-14T08:23:03;1.20;;;1.20;;
1603;SDS011;795;49.296;11.348;2023-03-14T08:25:30;1.03;;;1.03;;
1603;SDS011;795;49.296;11.348;2023-03-14T08:27:57;1.30;;;1.30;;
1603;SDS011;795;49.296;11.348;2023-03-14T08:30:24;2.70;;;1.07;;
1603;SDS011;795;49.296;11.348;2023-03-14T08:32:52;1.60;;;1.07;;
1603;SDS011;795;49.296;11.348;2023-03-14T08:35:19;1.23;;;1.23;;
1603;SDS011;795;49.296;11.348;2023-03-14T08:37:46;1.30;;;1.20;;
1603;SDS011;795;49.296;11.348;2023-03-14T08:40:13;0.80;;;0.80;;
1603;SDS011;795;49.296;11.348;2023-03-14T08:42:42;1.30;;;1.20;;
1603;SDS011;795;49.296;11.348;2023-03-14T08:45:13;1.07;;;1.07;;
1603;SDS011;795;49.296;11.348;2023-03-14T08:47:43;1.40;;;1.20;;
1603;SDS011;795;49.296;11.348;2023-03-14T08:50:11;1.20;;;1.10;;
1603;SDS011;795;49.296;11.348;2023-03-14T08:52:41;1.50;;;1.10;;
1603;SDS011;795;49.296;11.348;2023-03-14T08:55:09;1.50;;;1.40;;
1603;SDS011;795;49.296;11.348;2023-03-14T08:57:36;3.37;;;1.60;;
1603;SDS011;795;49.296;11.348;2023-03-14T09:00:04;1.30;;;1.20;;
1603;SDS011;795;49.296;11.348;2023-03-14T09:03:48;1.80;;;1.43;;
1603;SDS011;795;49.296;11.348;2023-03-14T09:06:16;3.00;;;1.10;;
1603;SDS011;795;49.296;11.348;2023-03-14T09:08:44;1.83;;;1.27;;
1603;SDS011;795;49.296;11.348;2023-03-14T09:11:11;1.10;;;1.10;;
1603;SDS011;795;49.296;11.348;2023-03-14T09:13:40;1.20;;;1.07;;
1603;SDS011;795;49.296;11.348;2023-03-14T09:16:07;2.87;;;1.50;;
1603;SDS011;795;49.296;11.348;2023-03-14T09:18:35;3.20;;;1.57;;
1603;SDS011;795;49.296;11.348;2023-03-14T09:21:02;1.80;;;1.20;;
1603;SDS011;795;49.296;11.348;2023-03-14T09:23:30;4.10;;;1.20;;
1603;SDS011;795;49.296;11.348;2023-03-14T09:25:57;1.43;;;1.00;;
1603;SDS011;795;49.296;11.348;2023-03-14T09:28:26;1.67;;;1.50;;
1603;SDS011;795;49.296;11.348;2023-03-14T09:30:54;0.93;;;0.90;;
1603;SDS011;795;49.296;11.348;2023-03-14T09:33:21;1.10;;;1.03;;
1603;SDS011;795;49.296;11.348;2023-03-14T09:35:48;3.00;;;1.13;;
1603;SDS011;795;49.296;11.348;2023-03-14T09:38:16;1.83;;;0.83;;
1603;SDS011;795;49.296;11.348;2023-03-14T09:40:42;1.10;;;1.10;;
1603;SDS011;795;49.296;11.348;2023-03-14T09:43:11;2.00;;;1.00;;
1603;SDS011;795;49.296;11.348;2023-03-14T09:45:42;0.97;;;0.97;;
1603;SDS011;795;49.296;11.348;2023-03-14T09:48:19;1.20;;;1.10;;
1603;SDS011;795;49.296;11.348;2023-03-14T09:50:53;1.40;;;1.20;;
1603;SDS011;795;49.296;11.348;2023-03-14T09:53:37;1.37;;;0.90;;
1603;SDS011;795;49.296;11.348;2023-03-14T09:56:19;1.20;;;1.10;;
1603;SDS011;795;49.296;11.348;2023-03-14T09:58:55;1.23;;;1.00;;
1603;SDS011;795;49.296;11.348;2023-03-14T10:01:32;1.27;;;1.07;;
1603;SDS011;795;49.296;11.348;2023-03-14T10:04:02;1.17;;;1.10;;
1603;SDS011;795;49.296;11.348;2023-03-14T10:06:42;1.23;;;1.13;;
1603;SDS011;795;49.296;11.348;2023-03-14T10:09:14;1.00;;;1.00;;
1603;SDS011;795;49.296;11.348;2023-03-14T10:11:56;1.40;;;1.30;;
1603;SDS011;795;49.296;11.348;2023-03-14T10:14:28;1.13;;;1.03;;
1603;SDS011;795;49.296;11.348;2023-03-14T10:17:10;1.10;;;1.10;;
1603;SDS011;795;49.296;11.348;2023-03-14T10:20:04;1.13;;;0.80;;
1603;SDS011;795;49.296;11.348;2023-03-14T10:22:29;1.00;;;0.90;;
1603;SDS011;795;49.296;11.348;2023-03-14T10:25:03;1.20;;;1.10;;
1603;SDS011;795;49.296;11.348;2023-03-14T10:27:52;1.50;;;1.07;;
1603;SDS011;795;49.296;11.348;2023-03-14T10:33:22;2.23;;;1.37;;
1603;SDS011;795;49.296;11.348;2023-03-14T10:38:58;1.10;;;0.80;;
1603;SDS011;795;49.296;11.348;2023-03-14T10:45:28;1.20;;;1.10;;
1603;SDS011;795;49.296;11.348;2023-03-14T10:48:18;5.10;;;1.63;;
1603;SDS011;795;49.296;11.348;2023-03-14T10:50:55;2.77;;;1.10;;
1603;SDS011;795;49.296;11.348;2023-03-14T10:53:39;1.27;;;1.17;;
1603;SDS011;795;49.296;11.348;2023-03-14T10:56:12;2.77;;;1.20;;
1603;SDS011;795;49.296;11.348;2023-03-14T10:58:51;1.17;;;1.10;;
1603;SDS011;795;49.296;11.348;2023-03-14T11:01:29;2.20;;;1.20;;
1603;SDS011;795;49.296;11.348;2023-03-14T11:07:33;1.17;;;1.07;;
1603;SDS011;795;49.296;11.348;2023-03-14T11:10:20;1.20;;;0.90;;
1603;SDS011;795;49.296;11.348;2023-03-14T11:19:49;1.93;;;1.17;;
1603;SDS011;795;49.296;11.348;2023-03-14T11:23:12;1.30;;;1.20;;
1603;SDS011;795;49.296;11.348;2023-03-14T11:29:19;1.23;;;1.23;;
1603;SDS011;795;49.296;11.348;2023-03-14T11:32:02;1.10;;;1.10;;
1603;SDS011;795;49.296;11.348;2023-03-14T11:34:53;1.70;;;1.53;;
1603;SDS011;795;49.296;11.348;2023-03-14T11:37:36;0.97;;;0.97;;
1603;SDS011;795;49.296;11.348;2023-03-14T11:43:00;1.13;;;1.07;;
1603;SDS011;795;49.296;11.348;2023-03-14T11:45:43;1.00;;;0.80;;
1603;SDS011;795;49.296;11.348;2023-03-14T11:48:16;7.00;;;1.93;;
1603;SDS011;795;49.296;11.348;2023-03-14T11:51:05;1.20;;;1.10;;
1603;SDS011;795;49.296;11.348;2023-03-14T11:57:01;1.40;;;1.30;;
1603;SDS011;795;49.296;11.348;2023-03-14T12:08:58;1.70;;;1.60;;
1603;SDS011;795;49.296;11.348;2023-03-14T12:14:35;1.97;;;1.87;;
1603;SDS011;795;49.296;11.348;2023-03-14T12:20:00;1.30;;;1.20;;
1603;SDS011;795;49.296;11.348;2023-03-14T12:25:38;1.70;;;1.33;;
1603;SDS011;795;49.296;11.348;2023-03-14T12:28:16;3.00;;;1.00;;
1603;SDS011;795;49.296;11.348;2023-03-14T12:30:56;0.90;;;0.90;;
1603;SDS011;795;49.296;11.348;2023-03-14T12:34:02;1.10;;;1.00;;
1603;SDS011;795;49.296;11.348;2023-03-14T12:45:29;1.03;;;1.03;;
1603;SDS011;795;49.296;11.348;2023-03-14T12:48:17;0.97;;;0.97;;
1603;SDS011;795;49.296;11.348;2023-03-14T12:59:38;1.23;;;1.23;;
1603;SDS011;795;49.296;11.348;2023-03-14T13:02:22;1.10;;;1.03;;
1603;SDS011;795;49.296;11.348;2023-03-14T13:10:23;1.20;;;1.10;;
1603;SDS011;795;49.296;11.348;2023-03-14T13:13:15;1.03;;;0.80;;
1603;SDS011;795;49.296;11.348;2023-03-14T13:15:59;0.73;;;0.73;;
1603;SDS011;795;49.296;11.348;2023-03-14T13:18:34;0.90;;;0.90;;
1603;SDS011;795;49.296;11.348;2023-03-14T13:21:13;0.67;;;0.67;;
1603;SDS011;795;49.296;11.348;2023-03-14T13:23:59;6.40;;;0.90;;
1603;SDS011;795;49.296;11.348;2023-03-14T13:26:35;1.00;;;1.00;;
1603;SDS011;795;49.296;11.348;2023-03-14T13:31:56;1.30;;;1.13;;
1603;SDS011;795;49.296;11.348;2023-03-14T13:34:45;1.00;;;1.00;;
1603;SDS011;795;49.296;11.348;2023-03-14T13:37:21;0.70;;;0.70;;
1603;SDS011;795;49.296;11.348;2023-03-14T13:39:53;6.37;;;4.93;;
1603;SDS011;795;49.296;11.348;2023-03-14T13:42:27;3.33;;;3.07;;
1603;SDS011;795;49.296;11.348;2023-03-14T13:44:56;1.40;;;1.30;;
1603;SDS011;795;49.296;11.348;2023-03-14T13:47:24;1.40;;;1.30;;
1603;SDS011;795;49.296;11.348;2023-03-14T13:49:52;1.20;;;1.20;;
1603;SDS011;795;49.296;11.348;2023-03-14T13:52:24;2.70;;;1.17;;
1603;SDS011;795;49.296;11.348;2023-03-14T13:54:59;1.13;;;1.03;;
1603;SDS011;795;49.296;11.348;2023-03-14T13:57:42;0.90;;;0.90;;
1603;SDS011;795;49.296;11.348;2023-03-14T14:00:22;1.33;;;1.07;;
1603;SDS011;795;49.296;11.348;2023-03-14T14:02:54;1.00;;;1.00;;
1603;SDS011;795;49.296;11.348;2023-03-14T14:05:28;1.13;;;0.80;;
1603;SDS011;795;49.296;11.348;2023-03-14T14:07:57;0.90;;;0.90;;
1603;SDS011;795;49.296;11.348;2023-03-14T14:10:25;0.73;;;0.73;;
1603;SDS011;795;49.296;11.348;2023-03-14T14:12:58;1.83;;;0.90;;
1603;SDS011;795;49.296;11.348;2023-03-14T14:15:33;0.83;;;0.83;;
1603;SDS011;795;49.296;11.348;2023-03-14T14:18:13;0.90;;;0.90;;
1603;SDS011;795;49.296;11.348;2023-03-14T14:20:48;0.77;;;0.77;;
1603;SDS011;795;49.296;11.348;2023-03-14T14:23:17;0.90;;;0.90;;
1603;SDS011;795;49.296;11.348;2023-03-14T14:25:55;1.10;;;1.00;;
1603;SDS011;795;49.296;11.348;2023-03-14T14:28:29;1.43;;;1.33;;
1603;SDS011;795;49.296;11.348;2023-03-14T14:33:55;1.17;;;1.17;;
1603;SDS011;795;49.296;11.348;2023-03-14T14:36:38;0.97;;;0.97;;
1603;SDS011;795;49.296;11.348;2023-03-14T14:39:13;1.80;;;1.30;;
1603;SDS011;795;49.296;11.348;2023-03-14T14:41:50;1.93;;;1.63;;
1603;SDS011;795;49.296;11.348;2023-03-14T14:44:32;1.00;;;1.00;;
1603;SDS011;795;49.296;11.348;2023-03-14T14:47:02;1.20;;;1.20;;
1603;SDS011;795;49.296;11.348;2023-03-14T14:49:31;1.33;;;1.30;;
1603;SDS011;795;49.296;11.348;2023-03-14T14:52:01;1.03;;;1.03;;
1603;SDS011;795;49.296;11.348;2023-03-14T14:54:42;1.33;;;1.20;;
1603;SDS011;795;49.296;11.348;2023-03-14T14:57:24;1.60;;;1.50;;
1603;SDS011;795;49.296;11.348;2023-03-14T15:00:01;1.80;;;1.70;;
1603;SDS011;795;49.296;11.348;2023-03-14T15:02:49;0.90;;;0.90;;
1603;SDS011;795;49.296;11.348;2023-03-14T15:05:22;2.00;;;1.60;;
1603;SDS011;795;49.296;11.348;2023-03-14T15:07:53;1.57;;;1.47;;
1603;SDS011;795;49.296;11.348;2023-03-14T15:10:21;1.27;;;1.23;;
1603;SDS011;795;49.296;11.348;2023-03-14T15:12:51;1.60;;;1.50;;
1603;SDS011;795;49.296;11.348;2023-03-14T15:15:19;1.73;;;1.63;;
1603;SDS011;795;49.296;11.348;2023-03-14T15:17:46;1.60;;;1.60;;
1603;SDS011;795;49.296;11.348;2023-03-14T15:20:14;1.40;;;1.37;;
1603;SDS011;795;49.296;11.348;2023-03-14T15:22:44;1.50;;;1.40;;
1603;SDS011;795;49.296;11.348;2023-03-14T15:25:12;1.90;;;1.80;;
1603;SDS011;795;49.296;11.348;2023-03-14T15:27:59;1.20;;;1.20;;
1603;SDS011;795;49.296;11.348;2023-03-14T15:30:26;5.60;;;1.87;;
1603;SDS011;795;49.296;11.348;2023-03-14T15:32:53;3.43;;;1.57;;
1603;SDS011;795;49.296;11.348;2023-03-14T15:35:20;3.23;;;1.70;;
1603;SDS011;795;49.296;11.348;2023-03-14T15:37:47;2.20;;;1.47;;
1603;SDS011;795;49.296;11.348;2023-03-14T15:40:15;1.80;;;1.70;;
1603;SDS011;795;49.296;11.348;2023-03-14T15:42:42;2.53;;;2.30;;
1603;SDS011;795;49.296;11.348;2023-03-14T15:45:10;2.70;;;2.57;;
1603;SDS011;795;49.296;11.348;2023-03-14T15:47:37;4.97;;;4.47;;
1603;SDS011;795;49.296;11.348;2023-03-14T15:50:04;3.03;;;2.83;;
1603;SDS011;795;49.296;11.348;2023-03-14T15:52:35;2.07;;;1.97;;
1603;SDS011;795;49.296;11.348;2023-03-14T15:55:03;2.80;;;2.47;;
1603;SDS011;795;49.296;11.348;2023-03-14T15:57:30;3.10;;;2.80;;
1603;SDS011;795;49.296;11.348;2023-03-14T15:59:57;3.80;;;2.50;;
1603;SDS011;795;49.296;11.348;2023-03-14T16:02:24;3.30;;;3.00;;
1603;SDS011;795;49.296;11.348;2023-03-14T16:04:51;3.43;;;3.13;;
1603;SDS011;795;49.296;11.348;2023-03-14T16:07:18;3.67;;;3.37;;
1603;SDS011;795;49.296;11.348;2023-03-14T16:09:45;2.17;;;1.97;;
1603;SDS011;795;49.296;11.348;2023-03-14T16:12:11;3.37;;;2.13;;
1603;SDS011;795;49.296;11.348;2023-03-14T16:14:38;2.27;;;2.07;;
1603;SDS011;795;49.296;11.348;2023-03-14T16:17:08;4.80;;;2.17;;
1603;SDS011;795;49.296;11.348;2023-03-14T16:19:36;2.67;;;2.47;;
1603;SDS011;795;49.296;11.348;2023-03-14T16:22:03;5.00;;;1.70;;
1603;SDS011;795;49.296;11.348;2023-03-14T16:24:30;2.43;;;2.33;;
1603;SDS011;795;49.296;11.348;2023-03-14T16:26:57;1.50;;;1.40;;
1603;SDS011;795;49.296;11.348;2023-03-14T16:29:24;3.70;;;1.60;;
1603;SDS011;795;49.296;11.348;2023-03-14T16:31:51;1.87;;;1.30;;
1603;SDS011;795;49.296;11.348;2023-03-14T16:34:18;2.20;;;1.50;;
1603;SDS011;795;49.296;11.348;2023-03-14T16:36:45;1.50;;;1.40;;
1603;SDS011;795;49.296;11.348;2023-03-14T16:39:13;1.40;;;1.30;;
1603;SDS011;795;49.296;11.348;2023-03-14T16:41:39;1.70;;;1.60;;
1603;SDS011;795;49.296;11.348;2023-03-14T16:44:07;1.97;;;1.43;;
1603;SDS011;795;49.296;11.348;2023-03-14T16:46:34;1.37;;;1.10;;
1603;SDS011;795;49.296;11.348;2023-03-14T16:49:01;1.90;;;1.70;;
1603;SDS011;795;49.296;11.348;2023-03-14T16:51:30;2.13;;;1.50;;
1603;SDS011;795;49.296;11.348;2023-03-14T16:53:57;1.47;;;1.40;;
1603;SDS011;795;49.296;11.348;2023-03-14T16:56:24;1.73;;;1.63;;
1603;SDS011;795;49.296;11.348;2023-03-14T16:58:51;1.43;;;1.33;;
1603;SDS011;795;49.296;11.348;2023-03-14T17:01:18;2.63;;;2.37;;
1603;SDS011;795;49.296;11.348;2023-03-14T17:03:47;3.87;;;2.30;;
1603;SDS011;795;49.296;11.348;2023-03-14T17:06:18;3.70;;;2.60;;
1603;SDS011;795;49.296;11.348;2023-03-14T17:08:51;2.10;;;1.90;;